Time;durP1;ratioP1;P1;durP2;ratioP2;P2;SDS_P1;SDS_P2;PMS_P1;PMS_P2;Temp;Humidity;BMP_temperature;BMP_pressure;BME280_temperature;BME280_humidity;BME280_pressure;Samples;Min_cycle;Max_cycle;Signal;HPM_P1;HPM_P2
2023/04/06 00:00:57;;;;;;;9.57;6.07;;;7.00;99.90;;;;;;4168243;28;20032;-66
2023/04/06 00:02:58;;;;;;;9.30;6.22;;;7.00;99.90;;;;;;4166538;28;20042;-65
2023/04/06 00:04:59;;;;;;;11.93;6.13;;;7.00;99.80;;;;;;4156470;28;20043;-66
2023/04/06 00:07:00;;;;;;;9.32;6.07;;;6.90;99.70;;;;;;4172136;28;20033;-65
2023/04/06 00:09:01;;;;;;;9.48;5.90;;;6.90;99.00;;;;;;4168434;28;20033;-66
2023/04/06 00:11:02;;;;;;;9.68;6.20;;;6.90;98.70;;;;;;4162273;28;20497;-66
2023/04/06 00:13:03;;;;;;;10.98;6.25;;;6.80;98.60;;;;;;4169602;28;21494;-65
2023/04/06 00:15:05;;;;;;;9.77;6.35;;;6.80;99.50;;;;;;4165635;28;20044;-66
2023/04/06 00:17:06;;;;;;;;;;;6.80;99.90;;;;;;4164237;28;20436;-66
2023/04/06 00:19:06;;;;;;;9.75;6.10;;;6.80;99.90;;;;;;4168420;28;19909;-66
2023/04/06 00:21:07;;;;;;;9.80;6.03;;;6.80;99.90;;;;;;4147717;28;20069;-65
2023/04/06 00:23:08;;;;;;;12.60;6.70;;;6.80;99.90;;;;;;4162864;28;20037;-66
2023/04/06 00:25:10;;;;;;;10.02;6.28;;;6.80;99.90;;;;;;4169068;28;20037;-68
2023/04/06 00:27:11;;;;;;;12.40;6.97;;;6.80;99.90;;;;;;4142035;28;21589;-66
2023/04/06 00:29:12;;;;;;;11.40;6.68;;;6.70;99.90;;;;;;4159783;28;20099;-65
2023/04/06 00:31:12;;;;;;;10.77;6.60;;;6.70;99.90;;;;;;4159449;28;20033;-66
2023/04/06 00:33:13;;;;;;;11.52;6.85;;;6.70;99.90;;;;;;4146130;28;20406;-65
2023/04/06 00:35:15;;;;;;;12.65;7.20;;;6.70;99.90;;;;;;4159877;28;20068;-65
2023/04/06 00:37:16;;;;;;;10.15;6.38;;;6.70;99.90;;;;;;4158291;28;20044;-65
2023/04/06 00:39:17;;;;;;;13.57;7.03;;;6.70;99.90;;;;;;4164466;28;20033;-65
2023/04/06 00:41:18;;;;;;;9.68;6.55;;;6.70;99.90;;;;;;4157851;28;20153;-65
2023/04/06 00:43:19;;;;;;;12.98;6.95;;;6.70;99.90;;;;;;4137849;28;20034;-65
2023/04/06 00:45:19;;;;;;;12.10;7.13;;;6.60;99.90;;;;;;4161021;28;20551;-65
2023/04/06 00:47:21;;;;;;;12.52;7.18;;;6.70;99.90;;;;;;4164174;28;20038;-65
2023/04/06 00:49:22;;;;;;;14.13;7.15;;;6.70;99.90;;;;;;4167842;28;20519;-65
2023/04/06 00:51:23;;;;;;;12.30;7.47;;;6.70;99.90;;;;;;4168958;28;20095;-66
2023/04/06 00:53:24;;;;;;;11.43;7.28;;;6.70;99.90;;;;;;4163852;28;20092;-64
2023/04/06 00:55:24;;;;;;;10.65;6.38;;;6.70;99.90;;;;;;4164057;28;20113;-66
2023/04/06 00:57:25;;;;;;;10.27;6.80;;;6.70;99.90;;;;;;4169085;28;20036;-66
2023/04/06 00:59:28;;;;;;;12.32;6.95;;;6.70;99.90;;;;;;4163174;28;20390;-65
2023/04/06 01:01:29;;;;;;;9.60;6.28;;;6.70;99.90;;;;;;4163965;28;20033;-66
2023/04/06 01:03:30;;;;;;;11.00;6.82;;;6.60;99.90;;;;;;4152207;28;20037;-65
2023/04/06 01:05:32;;;;;;;10.65;6.53;;;6.60;99.90;;;;;;4170916;28;20051;-67
2023/04/06 01:07:33;;;;;;;;;;;6.60;99.90;;;;;;4168088;28;20037;-66
2023/04/06 01:09:34;;;;;;;11.30;6.45;;;6.60;99.90;;;;;;4160894;28;19917;-66
2023/04/06 01:11:35;;;;;;;8.65;5.80;;;6.60;99.90;;;;;;4165172;28;20049;-67
2023/04/06 01:13:37;;;;;;;11.33;6.83;;;6.50;99.90;;;;;;4163126;28;20025;-66
2023/04/06 01:15:38;;;;;;;8.52;5.40;;;6.50;99.90;;;;;;4144997;28;20058;-66
2023/04/06 01:17:40;;;;;;;10.55;6.22;;;6.40;99.90;;;;;;4168690;28;20036;-68
2023/04/06 01:19:41;;;;;;;9.93;6.15;;;6.40;99.90;;;;;;4172219;28;20029;-65
2023/04/06 01:21:42;;;;;;;10.88;5.80;;;6.40;99.90;;;;;;4163213;28;20112;-66
2023/04/06 01:23:46;;;;;;;11.20;6.43;;;6.40;99.90;;;;;;4168901;28;20021;-66
2023/04/06 01:25:47;;;;;;;9.90;6.07;;;6.30;99.90;;;;;;4172277;28;20041;-64
2023/04/06 01:27:48;;;;;;;10.25;5.90;;;6.30;99.90;;;;;;4164068;28;20176;-66
2023/04/06 01:29:48;;;;;;;10.45;6.65;;;6.30;99.90;;;;;;4172594;28;20045;-65
2023/04/06 01:31:49;;;;;;;8.98;5.97;;;6.30;99.90;;;;;;4165669;28;20128;-66
2023/04/06 01:33:50;;;;;;;8.55;5.95;;;6.20;99.90;;;;;;4166117;28;20446;-66
2023/04/06 01:35:51;;;;;;;10.98;6.38;;;6.20;99.90;;;;;;4166791;28;20056;-66
2023/04/06 01:37:54;;;;;;;11.00;7.10;;;6.20;99.90;;;;;;4160793;28;20041;-67
2023/04/06 01:39:55;;;;;;;12.23;6.97;;;6.20;99.90;;;;;;4166427;28;20033;-65
2023/04/06 01:41:56;;;;;;;12.48;7.45;;;6.20;99.90;;;;;;4166069;28;20040;-66
2023/04/06 01:43:57;;;;;;;10.70;6.28;;;6.10;99.90;;;;;;4169926;28;20037;-66
2023/04/06 01:45:58;;;;;;;12.05;6.90;;;6.10;99.90;;;;;;4166949;28;20427;-66
2023/04/06 01:47:59;;;;;;;10.82;6.55;;;6.10;99.90;;;;;;4171989;28;20090;-66
2023/04/06 01:50:00;;;;;;;9.38;6.30;;;6.10;99.90;;;;;;4168045;28;20480;-65
2023/04/06 01:52:01;;;;;;;11.68;6.88;;;6.10;99.90;;;;;;4167953;28;20029;-65
2023/04/06 01:54:02;;;;;;;9.98;6.40;;;6.10;99.90;;;;;;4170579;28;20120;-65
2023/04/06 01:56:03;;;;;;;10.10;6.03;;;6.10;99.90;;;;;;4167805;28;20030;-66
2023/04/06 01:58:04;;;;;;;9.18;6.55;;;6.10;99.90;;;;;;4164868;28;21709;-66
2023/04/06 02:00:05;;;;;;;8.07;5.40;;;6.00;99.90;;;;;;4170908;28;20037;-66
2023/04/06 02:02:06;;;;;;;10.03;6.30;;;6.00;99.90;;;;;;4167733;28;20033;-66
2023/04/06 02:04:07;;;;;;;12.32;6.30;;;6.00;99.90;;;;;;4169441;28;20032;-65
2023/04/06 02:06:08;;;;;;;9.65;6.25;;;6.00;99.90;;;;;;4171592;28;20033;-65
2023/04/06 02:08:09;;;;;;;10.35;6.45;;;5.90;99.90;;;;;;4172873;28;20400;-65
2023/04/06 02:10:13;;;;;;;11.00;5.85;;;5.90;99.90;;;;;;4160646;28;20041;-65
2023/04/06 02:12:14;;;;;;;10.85;6.55;;;5.80;99.90;;;;;;4169423;28;20094;-66
2023/04/06 02:14:15;;;;;;;10.70;6.43;;;5.70;99.90;;;;;;4167606;28;20120;-67
2023/04/06 02:16:16;;;;;;;8.88;6.03;;;5.60;99.90;;;;;;4164978;28;20038;-65
2023/04/06 02:18:18;;;;;;;10.05;5.95;;;5.60;99.90;;;;;;4169869;28;20060;-65
2023/04/06 02:20:18;;;;;;;8.95;6.18;;;5.60;99.90;;;;;;4173484;28;20124;-65
2023/04/06 02:22:20;;;;;;;11.55;6.72;;;5.50;99.90;;;;;;4166131;28;20033;-66
2023/04/06 02:24:20;;;;;;;12.20;6.68;;;5.50;99.90;;;;;;4165866;28;20476;-66
2023/04/06 02:26:21;;;;;;;13.43;6.50;;;5.50;99.90;;;;;;4164215;28;20040;-66
2023/04/06 02:28:22;;;;;;;11.52;6.25;;;5.50;99.90;;;;;;4165793;28;20037;-65
2023/04/06 02:30:23;;;;;;;10.15;5.95;;;5.50;99.90;;;;;;4169507;28;20034;-65
2023/04/06 02:32:24;;;;;;;10.73;6.63;;;5.50;99.90;;;;;;4168330;28;20026;-64
2023/04/06 02:34:25;;;;;;;10.63;6.05;;;5.50;99.90;;;;;;4166932;28;20033;-65
2023/04/06 02:36:26;;;;;;;12.38;6.70;;;5.50;99.90;;;;;;4164050;28;20536;-65
2023/04/06 02:38:26;;;;;;;12.05;6.32;;;5.50;99.90;;;;;;4165799;28;20038;-65
2023/04/06 02:40:27;;;;;;;10.75;7.00;;;5.50;99.90;;;;;;4165826;28;20400;-64
2023/04/06 02:42:28;;;;;;;10.63;6.57;;;5.50;99.90;;;;;;4167677;28;20488;-64
2023/04/06 02:44:29;;;;;;;11.75;6.35;;;5.50;99.90;;;;;;4172870;28;20033;-65
2023/04/06 02:46:29;;;;;;;9.82;6.30;;;5.50;99.90;;;;;;4165861;28;20501;-65
2023/04/06 02:48:31;;;;;;;10.68;6.70;;;5.50;99.90;;;;;;4166769;28;20581;-65
2023/04/06 02:50:32;;;;;;;9.60;6.47;;;5.50;99.90;;;;;;4166582;28;20045;-65
2023/04/06 02:52:33;;;;;;;9.88;5.60;;;5.50;99.90;;;;;;4168628;28;20060;-65
2023/04/06 02:54:34;;;;;;;9.68;6.03;;;5.50;99.90;;;;;;4166575;28;20079;-66
2023/04/06 02:56:35;;;;;;;10.55;6.13;;;5.50;99.90;;;;;;4169616;28;20242;-65
2023/04/06 02:58:35;;;;;;;11.57;6.60;;;5.40;99.90;;;;;;4170296;28;20116;-66
2023/04/06 03:00:37;;;;;;;9.52;5.68;;;5.40;99.90;;;;;;4169476;28;20051;-66
2023/04/06 03:02:38;;;;;;;9.30;5.38;;;5.40;99.90;;;;;;4166877;28;20032;-65
2023/04/06 03:04:39;;;;;;;12.18;5.85;;;5.40;99.90;;;;;;4163202;28;20563;-65
2023/04/06 03:06:39;;;;;;;9.70;6.10;;;5.30;99.90;;;;;;4169822;28;20499;-65
2023/04/06 03:08:40;;;;;;;10.75;6.60;;;5.30;99.90;;;;;;4166187;28;20049;-65
2023/04/06 03:10:41;;;;;;;10.25;5.85;;;5.30;99.90;;;;;;4168468;28;20120;-64
2023/04/06 03:12:42;;;;;;;10.43;6.95;;;5.30;99.90;;;;;;4165317;28;20037;-66
2023/04/06 03:14:42;;;;;;;12.10;6.95;;;5.20;99.90;;;;;;4171943;28;20025;-65
2023/04/06 03:16:43;;;;;;;11.60;7.07;;;5.20;99.90;;;;;;4164879;28;20033;-65
2023/04/06 03:18:47;;;;;;;12.20;7.55;;;5.20;99.90;;;;;;4166689;28;20163;-65
2023/04/06 03:20:48;;;;;;;13.60;7.47;;;5.20;99.90;;;;;;4163159;28;20033;-66
2023/04/06 03:22:48;;;;;;;12.57;7.40;;;5.20;99.90;;;;;;4145485;28;20069;-66
2023/04/06 03:24:49;;;;;;;13.23;7.40;;;5.20;99.90;;;;;;4149388;28;20065;-66
2023/04/06 03:26:50;;;;;;;14.55;7.88;;;5.20;99.90;;;;;;4183021;28;20045;-65
2023/04/06 03:28:51;;;;;;;12.85;7.47;;;5.20;99.90;;;;;;4163016;28;20044;-65
2023/04/06 03:30:52;;;;;;;12.07;7.53;;;5.20;99.90;;;;;;4162558;28;20046;-65
2023/04/06 03:32:53;;;;;;;12.13;7.45;;;5.30;99.90;;;;;;4164953;28;20083;-65
2023/04/06 03:34:54;;;;;;;12.48;7.80;;;5.30;99.90;;;;;;4164798;28;20044;-66
2023/04/06 03:36:54;;;;;;;10.80;6.93;;;5.30;99.90;;;;;;4170586;28;20516;-65
2023/04/06 03:38:55;;;;;;;12.73;7.55;;;5.30;99.90;;;;;;4163737;28;20108;-65
2023/04/06 03:40:56;;;;;;;11.63;7.05;;;5.30;99.90;;;;;;4166455;28;20488;-66
2023/04/06 03:42:57;;;;;;;13.05;6.60;;;5.30;99.90;;;;;;4161617;28;20076;-65
2023/04/06 03:44:58;;;;;;;12.43;7.28;;;5.30;99.90;;;;;;4165085;28;20382;-65
2023/04/06 03:46:59;;;;;;;12.80;7.55;;;5.30;99.90;;;;;;4163751;28;20051;-64
2023/04/06 03:49:00;;;;;;;13.02;6.95;;;5.30;99.90;;;;;;4163541;28;20103;-66
2023/04/06 03:51:00;;;;;;;15.00;7.82;;;5.30;99.90;;;;;;4160379;28;20038;-65
2023/04/06 03:53:02;;;;;;;14.05;7.22;;;5.30;99.90;;;;;;4162893;28;20092;-65
2023/04/06 03:55:04;;;;;;;13.80;7.95;;;5.30;99.90;;;;;;4168161;28;20029;-65
2023/04/06 03:57:05;;;;;;;13.85;7.85;;;5.30;99.90;;;;;;4159625;28;20117;-67
2023/04/06 03:59:06;;;;;;;11.70;7.68;;;5.30;99.90;;;;;;4165923;28;20044;-66
2023/04/06 04:01:06;;;;;;;13.88;8.32;;;5.30;99.90;;;;;;4145947;28;20029;-65
2023/04/06 04:03:07;;;;;;;13.77;8.00;;;5.30;99.90;;;;;;4168641;28;20029;-65
2023/04/06 04:05:08;;;;;;;12.00;7.68;;;5.30;99.90;;;;;;4163648;28;20045;-66
2023/04/06 04:07:09;;;;;;;14.35;8.35;;;5.30;99.90;;;;;;4165244;28;20089;-65
2023/04/06 04:09:10;;;;;;;13.07;7.60;;;5.30;99.90;;;;;;4165042;28;20134;-65
2023/04/06 04:11:11;;;;;;;15.57;9.07;;;5.30;99.90;;;;;;4165120;28;20487;-65
2023/04/06 04:13:11;;;;;;;14.25;8.30;;;5.30;99.90;;;;;;4168333;28;20025;-64
2023/04/06 04:15:12;;;;;;;14.68;8.75;;;5.30;99.90;;;;;;4167605;28;20025;-65
2023/04/06 04:17:13;;;;;;;15.70;9.10;;;5.30;99.90;;;;;;4164126;28;20025;-66
2023/04/06 04:19:13;;;;;;;12.93;8.32;;;5.30;99.90;;;;;;4168377;28;20388;-65
2023/04/06 04:21:14;;;;;;;16.58;8.90;;;5.30;99.90;;;;;;4166067;28;20167;-66
2023/04/06 04:23:15;;;;;;;14.18;8.48;;;5.40;99.90;;;;;;4146822;28;20035;-66
2023/04/06 04:25:16;;;;;;;14.07;8.50;;;5.40;99.90;;;;;;4168167;28;20033;-65
2023/04/06 04:27:16;;;;;;;15.40;7.68;;;5.40;99.90;;;;;;4166932;28;20139;-66
2023/04/06 04:29:20;;;;;;;16.10;8.60;;;5.40;99.90;;;;;;4165642;28;20427;-66
2023/04/06 04:31:22;;;;;;;16.27;9.10;;;5.30;99.90;;;;;;4166070;28;20026;-65
2023/04/06 04:33:23;;;;;;;15.93;8.95;;;5.40;99.90;;;;;;4162974;28;20026;-65
2023/04/06 04:35:23;;;;;;;14.20;8.75;;;5.40;99.90;;;;;;4167117;28;20465;-64
2023/04/06 04:37:24;;;;;;;14.35;8.70;;;5.30;99.90;;;;;;4167294;28;20053;-65
2023/04/06 04:39:25;;;;;;;17.00;9.05;;;5.30;99.90;;;;;;4161515;28;20087;-67
2023/04/06 04:41:26;;;;;;;18.73;9.20;;;5.30;99.90;;;;;;4155087;28;20033;-65
2023/04/06 04:43:27;;;;;;;16.33;9.30;;;5.30;99.90;;;;;;4167497;28;20057;-65
2023/04/06 04:45:28;;;;;;;17.63;10.15;;;5.30;99.90;;;;;;4164172;28;20037;-65
2023/04/06 04:47:29;;;;;;;16.67;9.65;;;5.30;99.90;;;;;;4163042;28;20469;-66
2023/04/06 04:49:30;;;;;;;17.02;9.25;;;5.30;99.90;;;;;;4166815;28;20034;-65
2023/04/06 04:51:32;;;;;;;17.67;10.23;;;5.30;99.90;;;;;;4167713;28;20045;-65
2023/04/06 04:53:33;;;;;;;16.85;9.63;;;5.30;99.90;;;;;;4162032;28;20699;-66
2023/04/06 04:55:34;;;;;;;18.88;9.88;;;5.40;99.90;;;;;;4166512;28;20100;-65
2023/04/06 04:57:35;;;;;;;15.57;9.98;;;5.40;99.90;;;;;;4165056;28;20032;-66
2023/04/06 04:59:36;;;;;;;15.38;9.38;;;5.30;99.90;;;;;;4166398;28;20060;-65
2023/04/06 05:01:36;;;;;;;18.23;9.88;;;5.30;99.90;;;;;;4160164;28;20029;-64
2023/04/06 05:03:38;;;;;;;14.85;9.15;;;5.30;99.90;;;;;;4165889;28;20955;-66
2023/04/06 05:05:39;;;;;;;18.20;9.20;;;5.20;99.90;;;;;;4171099;28;20037;-65
2023/04/06 05:07:40;;;;;;;17.13;9.25;;;5.20;99.90;;;;;;4167981;28;20109;-65
2023/04/06 05:09:40;;;;;;;15.98;8.88;;;5.20;99.90;;;;;;4156222;28;20029;-66
2023/04/06 05:11:41;;;;;;;14.25;8.70;;;5.20;99.90;;;;;;4169865;28;20025;-66
2023/04/06 05:13:42;;;;;;;15.77;8.93;;;5.10;99.90;;;;;;4161354;28;20596;-64
2023/04/06 05:15:43;;;;;;;16.48;9.57;;;5.20;99.90;;;;;;4167880;28;20033;-66
2023/04/06 05:17:44;;;;;;;13.95;8.80;;;5.10;99.90;;;;;;4174309;28;20028;-65
2023/04/06 05:19:45;;;;;;;17.88;9.65;;;5.10;99.90;;;;;;4166820;28;20087;-65
2023/04/06 05:21:46;;;;;;;16.17;8.63;;;5.10;99.90;;;;;;4165162;28;20091;-65
2023/04/06 05:23:46;;;;;;;14.13;8.80;;;5.10;99.90;;;;;;4167011;28;20423;-66
2023/04/06 05:25:47;;;;;;;16.70;9.98;;;5.10;99.90;;;;;;4171767;28;20086;-64
2023/04/06 05:27:48;;;;;;;18.35;10.20;;;5.20;99.90;;;;;;4170368;28;20075;-64
2023/04/06 05:29:49;;;;;;;18.17;10.52;;;5.10;99.90;;;;;;4167977;28;20109;-64
2023/04/06 05:31:51;;;;;;;17.23;10.15;;;5.20;99.90;;;;;;4144501;28;20493;-65
2023/04/06 05:33:52;;;;;;;17.38;9.68;;;5.20;99.90;;;;;;4150827;28;20026;-66
2023/04/06 05:35:53;;;;;;;17.25;9.90;;;5.10;99.90;;;;;;4166128;28;20037;-65
2023/04/06 05:37:53;;;;;;;16.58;9.60;;;5.20;99.90;;;;;;4166904;28;20044;-66
2023/04/06 05:39:55;;;;;;;18.00;9.73;;;5.20;99.90;;;;;;4166244;28;20699;-65
2023/04/06 05:41:56;;;;;;;14.40;8.65;;;5.20;99.90;;;;;;4161488;28;20123;-65
2023/04/06 05:43:57;;;;;;;16.17;9.13;;;5.20;99.90;;;;;;4161911;28;20037;-65
2023/04/06 05:45:57;;;;;;;15.07;8.55;;;5.20;99.90;;;;;;4166904;28;20041;-66
2023/04/06 05:47:58;;;;;;;17.75;9.52;;;5.30;99.90;;;;;;4162399;28;20036;-65
2023/04/06 05:50:00;;;;;;;15.27;8.52;;;5.30;99.90;;;;;;4169314;28;20032;-67
2023/04/06 05:52:01;;;;;;;14.57;8.75;;;5.20;99.90;;;;;;4168343;28;20068;-66
2023/04/06 05:54:01;;;;;;;14.77;8.80;;;5.20;99.90;;;;;;4164830;28;20042;-66
2023/04/06 05:56:03;;;;;;;15.23;9.27;;;5.20;99.90;;;;;;4170892;28;24506;-66
2023/04/06 05:58:04;;;;;;;18.55;9.63;;;5.30;99.90;;;;;;4161875;28;20026;-66
2023/04/06 06:00:08;;;;;;;15.82;9.57;;;5.30;99.90;;;;;;4166629;28;20114;-65
2023/04/06 06:02:09;;;;;;;15.68;8.98;;;5.30;99.90;;;;;;4169803;28;20111;-65
2023/04/06 06:04:10;;;;;;;15.52;9.30;;;5.20;99.90;;;;;;4169171;28;20073;-65
2023/04/06 06:06:11;;;;;;;15.27;8.80;;;5.20;99.90;;;;;;4170756;28;20475;-65
2023/04/06 06:08:12;;;;;;;21.05;9.38;;;5.20;99.90;;;;;;4164396;28;20049;-66
2023/04/06 06:10:13;;;;;;;19.45;9.48;;;5.30;99.90;;;;;;4167074;28;20045;-66
2023/04/06 06:12:13;;;;;;;15.35;9.10;;;5.20;99.90;;;;;;4161407;28;20036;-65
2023/04/06 06:14:15;;;;;;;16.50;8.80;;;5.30;99.90;;;;;;4163521;28;20109;-65
2023/04/06 06:16:17;;;;;;;16.05;9.50;;;5.30;99.90;;;;;;4160502;28;20051;-65
2023/04/06 06:18:17;;;;;;;15.35;8.50;;;5.30;99.90;;;;;;4160582;28;20037;-65
2023/04/06 06:20:19;;;;;;;15.13;8.98;;;5.40;99.90;;;;;;4160955;28;20048;-66
2023/04/06 06:22:20;;;;;;;15.60;9.63;;;5.40;99.90;;;;;;4162408;28;20042;-66
2023/04/06 06:24:21;;;;;;;15.93;8.65;;;5.40;99.90;;;;;;4164275;28;20496;-64
2023/04/06 06:26:21;;;;;;;18.63;9.73;;;5.50;99.90;;;;;;4160525;28;20076;-66
2023/04/06 06:28:22;;;;;;;17.90;9.50;;;5.60;99.90;;;;;;4160092;28;20033;-66
2023/04/06 06:30:23;;;;;;;15.40;9.70;;;5.70;99.90;;;;;;4149141;28;20089;-66
2023/04/06 06:32:24;;;;;;;17.13;9.35;;;5.70;99.90;;;;;;4163044;28;20055;-67
2023/04/06 06:34:25;;;;;;;16.80;8.48;;;5.90;99.90;;;;;;4157363;28;20037;-66
2023/04/06 06:36:26;;;;;;;15.40;8.23;;;6.10;99.90;;;;;;4159579;28;20524;-67
2023/04/06 06:38:27;;;;;;;18.05;9.23;;;6.50;99.90;;;;;;4164118;28;20165;-67
2023/04/06 06:40:28;;;;;;;16.52;7.90;;;6.70;99.90;;;;;;4165235;28;20064;-67
2023/04/06 06:42:29;;;;;;;13.70;8.30;;;7.10;99.90;;;;;;4154731;28;20124;-66
2023/04/06 06:44:30;;;;;;;14.88;7.75;;;7.20;99.90;;;;;;4152223;28;20039;-67
2023/04/06 06:46:31;;;;;;;14.43;8.32;;;7.40;99.90;;;;;;4154367;28;20068;-66
2023/04/06 06:48:32;;;;;;;13.38;8.20;;;7.70;99.90;;;;;;4161524;28;20041;-66
2023/04/06 06:50:32;;;;;;;15.30;8.40;;;8.00;99.90;;;;;;4155968;28;20033;-67
2023/04/06 06:52:33;;;;;;;12.38;8.20;;;8.30;99.90;;;;;;4164714;28;20472;-67
2023/04/06 06:54:34;;;;;;;12.30;7.93;;;8.40;99.90;;;;;;4165789;28;20450;-67
2023/04/06 06:56:38;;;;;;;19.30;8.90;;;8.70;99.90;;;;;;4161097;28;20036;-66
2023/04/06 06:58:39;;;;;;;12.45;8.27;;;8.90;99.90;;;;;;4162327;28;20041;-66
2023/04/06 07:00:40;;;;;;;11.90;8.05;;;9.20;99.90;;;;;;4164365;28;20036;-67
2023/04/06 07:02:41;;;;;;;16.63;8.57;;;9.40;99.90;;;;;;4164353;28;20125;-67
2023/04/06 07:04:42;;;;;;;18.40;9.55;;;9.70;99.90;;;;;;4162815;28;20564;-66
2023/04/06 07:06:42;;;;;;;13.90;8.15;;;9.70;99.90;;;;;;4161223;28;20109;-67
2023/04/06 07:08:43;;;;;;;11.57;7.88;;;9.70;98.40;;;;;;4162250;28;20034;-67
2023/04/06 07:10:45;;;;;;;11.57;7.45;;;9.90;97.70;;;;;;4143416;28;20722;-67
2023/04/06 07:12:46;;;;;;;15.75;8.50;;;10.00;99.00;;;;;;4163969;28;20499;-67
2023/04/06 07:14:47;;;;;;;17.85;8.75;;;10.00;96.40;;;;;;4159551;28;20587;-67
2023/04/06 07:16:49;;;;;;;17.08;9.05;;;10.00;98.50;;;;;;4135412;28;20398;-68
2023/04/06 07:18:53;;;;;;;16.00;8.55;;;9.90;96.50;;;;;;4155290;28;20045;-71
2023/04/06 07:20:53;;;;;;;13.07;8.43;;;10.10;97.40;;;;;;4162589;28;20041;-69
2023/04/06 07:22:54;;;;;;;14.90;8.10;;;10.30;96.50;;;;;;4154024;28;20036;-68
2023/04/06 07:24:55;;;;;;;15.20;8.85;;;10.50;97.20;;;;;;4169072;28;20499;-69
2023/04/06 07:26:57;;;;;;;14.00;8.05;;;10.60;96.20;;;;;;4161872;28;20815;-70
2023/04/06 07:28:58;;;;;;;15.07;8.37;;;10.70;96.40;;;;;;4160636;28;20064;-69
2023/04/06 07:30:59;;;;;;;14.68;8.88;;;10.90;95.80;;;;;;4160816;28;20045;-70
2023/04/06 07:33:00;;;;;;;15.65;8.25;;;10.90;94.20;;;;;;4159045;28;20037;-70
2023/04/06 07:35:01;;;;;;;13.38;8.35;;;11.00;94.40;;;;;;4162925;28;20123;-69
2023/04/06 07:37:02;;;;;;;12.15;7.68;;;11.20;96.40;;;;;;4161658;28;20046;-68
2023/04/06 07:39:03;;;;;;;12.77;7.97;;;11.30;95.10;;;;;;4162861;28;20052;-69
2023/04/06 07:41:04;;;;;;;16.73;9.43;;;11.40;94.80;;;;;;4160474;28;20038;-70
2023/04/06 07:43:05;;;;;;;18.30;8.75;;;11.50;93.20;;;;;;4162357;28;20033;-69
2023/04/06 07:45:07;;;;;;;15.75;8.48;;;11.60;94.20;;;;;;4146955;28;20369;-69
2023/04/06 07:47:08;;;;;;;12.35;7.90;;;11.60;93.70;;;;;;4149428;28;21688;-69
2023/04/06 07:49:09;;;;;;;15.02;9.23;;;11.60;93.40;;;;;;4163671;28;20500;-69
2023/04/06 07:51:13;;;;;;;12.55;8.30;;;11.60;92.00;;;;;;4160607;28;20052;-69
2023/04/06 07:53:33;;;;;;;14.90;7.93;;;11.60;93.60;;;;;;4153570;28;21508;-70
2023/04/06 07:55:34;;;;;;;14.25;9.00;;;11.60;95.00;;;;;;4161852;28;20069;-68
2023/04/06 07:57:34;;;;;;;15.90;9.20;;;11.50;92.40;;;;;;4161439;28;20084;-69
2023/04/06 07:59:35;;;;;;;14.13;8.48;;;11.40;92.20;;;;;;4161176;28;20078;-69
2023/04/06 08:01:36;;;;;;;15.15;8.88;;;11.30;93.20;;;;;;4149663;28;20416;-70
2023/04/06 08:03:37;;;;;;;14.52;9.68;;;11.30;93.00;;;;;;4164383;28;20033;-71
2023/04/06 08:05:37;;;;;;;15.15;8.85;;;11.20;92.70;;;;;;4161512;28;20523;-69
2023/04/06 08:07:38;;;;;;;13.95;8.23;;;11.20;93.10;;;;;;4158060;28;20083;-67
2023/04/06 08:09:39;;;;;;;13.55;8.63;;;11.20;92.40;;;;;;4161399;28;20455;-69
2023/04/06 08:11:40;;;;;;;16.58;8.98;;;11.20;92.30;;;;;;4157674;28;20104;-70
2023/04/06 08:13:40;;;;;;;14.32;8.07;;;11.20;93.60;;;;;;4161167;28;20034;-69
2023/04/06 08:15:41;;;;;;;15.93;8.48;;;11.20;92.60;;;;;;4161225;28;20091;-68
2023/04/06 08:17:42;;;;;;;16.20;8.82;;;11.40;93.80;;;;;;4158411;28;20481;-67
2023/04/06 08:19:44;;;;;;;15.48;8.48;;;11.40;92.40;;;;;;4161610;28;20037;-69
2023/04/06 08:21:46;;;;;;;20.20;9.15;;;11.50;93.00;;;;;;4135931;28;20540;-69
2023/04/06 08:23:46;;;;;;;17.97;9.47;;;11.50;91.70;;;;;;4162033;28;20033;-69
2023/04/06 08:25:47;;;;;;;14.57;8.65;;;11.50;91.10;;;;;;4160467;28;20033;-68
2023/04/06 08:27:48;;;;;;;13.82;8.45;;;11.50;91.70;;;;;;4156793;28;20041;-68
2023/04/06 08:29:50;;;;;;;19.25;9.93;;;11.60;92.60;;;;;;4163628;28;20037;-71
2023/04/06 08:31:51;;;;;;;15.98;8.93;;;11.50;91.60;;;;;;4159155;28;20045;-68
2023/04/06 08:33:51;;;;;;;13.23;8.35;;;11.50;92.10;;;;;;4165646;28;20041;-68
2023/04/06 08:35:52;;;;;;;16.08;8.57;;;11.60;93.70;;;;;;4167075;28;20049;-69
2023/04/06 08:37:53;;;;;;;15.95;9.30;;;11.60;91.90;;;;;;4165501;28;20103;-68
2023/04/06 08:39:54;;;;;;;16.77;9.10;;;11.70;91.30;;;;;;4167201;28;20125;-68
2023/04/06 08:41:59;;;;;;;13.38;8.63;;;11.70;92.10;;;;;;4161170;28;20591;-69
2023/04/06 08:44:01;;;;;;;16.63;10.00;;;11.70;91.80;;;;;;4169717;28;20128;-69
2023/04/06 08:46:03;;;;;;;16.65;9.73;;;11.70;90.40;;;;;;4160343;28;20081;-70
2023/04/06 08:48:06;;;;;;;15.68;8.77;;;11.80;91.20;;;;;;4166034;28;20083;-68
2023/04/06 08:50:08;;;;;;;16.92;9.48;;;11.80;90.60;;;;;;4164772;28;20045;-68
2023/04/06 08:52:10;;;;;;;17.08;10.00;;;11.80;90.50;;;;;;4154901;28;20075;-68
2023/04/06 08:54:11;;;;;;;19.02;8.85;;;11.80;89.40;;;;;;4168444;28;20536;-68
2023/04/06 08:56:16;;;;;;;19.23;9.88;;;11.80;90.90;;;;;;4139195;28;20571;-68
2023/04/06 08:58:17;;;;;;;15.45;9.13;;;11.80;91.10;;;;;;4144797;28;20037;-70
2023/04/06 09:00:18;;;;;;;19.50;11.05;;;11.80;90.80;;;;;;4165905;28;20034;-69
2023/04/06 09:02:20;;;;;;;17.40;9.30;;;11.80;90.90;;;;;;4168418;28;20091;-68
2023/04/06 09:04:20;;;;;;;17.55;9.88;;;11.80;90.40;;;;;;4148985;28;20044;-68
2023/04/06 09:06:22;;;;;;;17.27;9.73;;;11.70;89.50;;;;;;4171643;28;20494;-69
2023/04/06 09:08:22;;;;;;;18.27;10.10;;;11.80;90.00;;;;;;4171714;28;21313;-68
2023/04/06 09:10:24;;;;;;;23.60;10.63;;;11.80;91.20;;;;;;4170861;28;20052;-69
2023/04/06 09:12:30;;;;;;;20.55;11.00;;;11.80;90.60;;;;;;4165772;28;20029;-69
2023/04/06 09:14:38;;;;;;;16.10;9.48;;;11.80;89.80;;;;;;4167587;28;20035;-68
2023/04/06 09:16:44;;;;;;;17.52;9.68;;;11.70;88.10;;;;;;4173721;28;20044;-70
2023/04/06 09:18:45;;;;;;;16.27;9.80;;;11.70;88.40;;;;;;4158878;28;20034;-67
2023/04/06 09:20:57;;;;;;;18.90;9.63;;;11.70;89.40;;;;;;4169116;28;20029;-67
2023/04/06 09:22:58;;;;;;;18.50;9.88;;;11.70;90.80;;;;;;4167115;28;20083;-68
2023/04/06 09:24:59;;;;;;;15.77;9.90;;;11.70;89.50;;;;;;4146030;28;20156;-69
2023/04/06 09:27:00;;;;;;;16.52;9.75;;;11.80;90.00;;;;;;4154764;28;20112;-68
2023/04/06 09:29:01;;;;;;;21.98;10.68;;;11.80;89.30;;;;;;4147936;28;20041;-69
2023/04/06 09:31:02;;;;;;;22.27;11.07;;;11.80;90.90;;;;;;4165130;28;20421;-68
2023/04/06 09:33:02;;;;;;;16.58;10.38;;;11.80;88.10;;;;;;4171397;28;20037;-68
2023/04/06 09:35:07;;;;;;;24.17;10.80;;;11.80;88.90;;;;;;4149660;28;20034;-67
2023/04/06 09:37:18;;;;;;;16.27;9.82;;;11.70;89.90;;;;;;4170762;28;20118;-68
2023/04/06 09:39:22;;;;;;;15.00;9.27;;;11.80;90.40;;;;;;4166459;28;20065;-67
2023/04/06 09:41:36;;;;;;;19.33;10.95;;;11.90;90.30;;;;;;4163738;28;20092;-68
2023/04/06 09:43:37;;;;;;;22.77;10.60;;;11.80;90.80;;;;;;4164215;28;20125;-68
2023/04/06 09:45:38;;;;;;;16.13;9.63;;;11.90;90.20;;;;;;4165110;28;20029;-67
2023/04/06 09:47:42;;;;;;;17.77;10.55;;;11.90;90.50;;;;;;4168816;28;20025;-68
2023/04/06 09:49:44;;;;;;;15.60;9.88;;;11.90;90.00;;;;;;4166324;28;20476;-67
2023/04/06 09:51:54;;;;;;;21.80;10.20;;;12.00;90.70;;;;;;4177051;28;20025;-68
2023/04/06 09:54:00;;;;;;;15.88;9.88;;;12.00;90.40;;;;;;4173151;28;20037;-67
2023/04/06 09:56:03;;;;;;;20.58;11.10;;;12.10;90.00;;;;;;4169892;28;20036;-69
2023/04/06 09:58:06;;;;;;;20.92;10.85;;;12.10;89.00;;;;;;4166617;28;20029;-69
2023/04/06 10:00:11;;;;;;;;;;;12.10;90.10;;;;;;4166640;28;20111;-69
2023/04/06 10:02:36;;;;;;;26.45;11.80;;;12.20;90.30;;;;;;4170326;28;19909;-68
2023/04/06 10:04:47;;;;;;;37.45;12.65;;;12.30;88.30;;;;;;4168468;28;20335;-68
2023/04/06 10:06:52;;;;;;;40.08;12.02;;;12.30;90.00;;;;;;4168156;28;20515;-67
2023/04/06 10:08:55;;;;;;;24.30;11.73;;;12.40;90.80;;;;;;4152461;28;20037;-69
2023/04/06 10:10:56;;;;;;;24.38;10.55;;;12.40;90.40;;;;;;4139711;28;20045;-67
2023/04/06 10:12:57;;;;;;;25.73;12.65;;;12.50;91.10;;;;;;4168072;28;20033;-67
2023/04/06 10:14:58;;;;;;;21.70;11.27;;;12.60;88.40;;;;;;4173298;28;20396;-70
2023/04/06 10:17:00;;;;;;;22.98;11.90;;;12.60;87.30;;;;;;4167986;28;20091;-68
2023/04/06 10:19:18;;;;;;;19.98;11.18;;;12.50;89.00;;;;;;4171332;28;20037;-68
2023/04/06 10:21:23;;;;;;;22.13;10.95;;;12.60;87.20;;;;;;4167395;28;20037;-69
2023/04/06 10:24:13;;;;;;;20.08;10.75;;;12.60;89.20;;;;;;4164619;28;20067;-68
2023/04/06 10:26:17;;;;;;;20.45;11.02;;;12.60;89.80;;;;;;4132021;28;20108;-69
2023/04/06 10:28:19;;;;;;;23.70;11.68;;;12.70;89.80;;;;;;4156249;28;20041;-67
2023/04/06 10:30:20;;;;;;;19.75;11.77;;;12.80;90.30;;;;;;4162860;28;20025;-70
2023/04/06 10:32:35;;;;;;;25.40;10.70;;;12.90;91.00;;;;;;4168527;28;20464;-67